sensor_id;sensor_type;location;lat;lon;timestamp;temperature;humidity
27633;DHT22;15046;50.930;13.334;2023-02-05T00:02:16;-1.60;99.90
27633;DHT22;15046;50.930;13.334;2023-02-05T00:04:42;-1.60;99.90
27633;DHT22;15046;50.930;13.334;2023-02-05T00:07:08;-1.70;99.90
27633;DHT22;15046;50.930;13.334;2023-02-05T00:09:34;-1.70;99.90
27633;DHT22;15046;50.930;13.334;2023-02-05T00:12:01;-1.80;99.90
27633;DHT22;15046;50.930;13.334;2023-02-05T00:14:27;-1.90;99.90
27633;DHT22;15046;50.930;13.334;2023-02-05T00:16:53;-1.90;99.90
27633;DHT22;15046;50.930;13.334;2023-02-05T00:19:19;-1.90;99.90
27633;DHT22;15046;50.930;13.334;2023-02-05T00:21:45;-2.00;99.90
27633;DHT22;15046;50.930;13.334;2023-02-05T00:24:11;-2.00;99.90
27633;DHT22;15046;50.930;13.334;2023-02-05T00:26:37;-2.10;99.90
27633;DHT22;15046;50.930;13.334;2023-02-05T00:29:03;-2.10;99.90
27633;DHT22;15046;50.930;13.334;2023-02-05T00:31:29;-2.10;99.90
27633;DHT22;15046;50.930;13.334;2023-02-05T00:33:55;-2.20;99.90
27633;DHT22;15046;50.930;13.334;2023-02-05T00:36:21;-2.30;99.90
27633;DHT22;15046;50.930;13.334;2023-02-05T00:38:49;-2.30;99.90
27633;DHT22;15046;50.930;13.334;2023-02-05T00:41:15;-2.30;99.90
27633;DHT22;15046;50.930;13.334;2023-02-05T00:43:41;-2.30;99.90
27633;DHT22;15046;50.930;13.334;2023-02-05T00:46:08;-2.40;99.90
27633;DHT22;15046;50.930;13.334;2023-02-05T00:48:35;-2.40;99.90
27633;DHT22;15046;50.930;13.334;2023-02-05T00:51:00;-2.30;99.90
27633;DHT22;15046;50.930;13.334;2023-02-05T00:53:26;-2.40;99.90
27633;DHT22;15046;50.930;13.334;2023-02-05T00:55:52;-2.30;99.90
27633;DHT22;15046;50.930;13.334;2023-02-05T00:58:18;-2.40;99.90
27633;DHT22;15046;50.930;13.334;2023-02-05T01:00:44;-2.40;99.90
27633;DHT22;15046;50.930;13.334;2023-02-05T01:03:11;-2.40;99.90
27633;DHT22;15046;50.930;13.334;2023-02-05T01:05:38;-2.40;99.90
27633;DHT22;15046;50.930;13.334;2023-02-05T01:08:05;-2.50;99.90
27633;DHT22;15046;50.930;13.334;2023-02-05T01:10:31;-2.50;99.90
27633;DHT22;15046;50.930;13.334;2023-02-05T01:12:57;-2.50;99.90
27633;DHT22;15046;50.930;13.334;2023-02-05T01:15:23;-2.60;99.90
27633;DHT22;15046;50.930;13.334;2023-02-05T01:17:49;-2.60;99.90
27633;DHT22;15046;50.930;13.334;2023-02-05T01:20:15;-2.60;99.90
27633;DHT22;15046;50.930;13.334;2023-02-05T01:22:41;-2.60;99.90
27633;DHT22;15046;50.930;13.334;2023-02-05T01:25:08;-2.70;99.90
27633;DHT22;15046;50.930;13.334;2023-02-05T01:27:35;-2.70;99.90
27633;DHT22;15046;50.930;13.334;2023-02-05T01:30:02;-2.80;99.90
27633;DHT22;15046;50.930;13.334;2023-02-05T01:32:28;-2.80;99.90
27633;DHT22;15046;50.930;13.334;2023-02-05T01:34:54;-2.80;99.90
27633;DHT22;15046;50.930;13.334;2023-02-05T01:37:20;-2.90;99.90
27633;DHT22;15046;50.930;13.334;2023-02-05T01:39:46;-2.90;99.90
27633;DHT22;15046;50.930;13.334;2023-02-05T01:42:25;-2.90;99.90
27633;DHT22;15046;50.930;13.334;2023-02-05T01:47:45;-3.00;99.90
27633;DHT22;15046;50.930;13.334;2023-02-05T01:50:11;-3.00;99.90
27633;DHT22;15046;50.930;13.334;2023-02-05T01:52:36;-3.00;99.90
27633;DHT22;15046;50.930;13.334;2023-02-05T01:55:03;-3.10;99.90
27633;DHT22;15046;50.930;13.334;2023-02-05T01:57:29;-3.10;99.90
27633;DHT22;15046;50.930;13.334;2023-02-05T01:59:56;-3.10;99.90
27633;DHT22;15046;50.930;13.334;2023-02-05T02:02:22;-3.20;99.90
27633;DHT22;15046;50.930;13.334;2023-02-05T02:04:57;-3.20;99.90
27633;DHT22;15046;50.930;13.334;2023-02-05T02:07:25;-3.20;99.90
27633;DHT22;15046;50.930;13.334;2023-02-05T02:09:51;-3.20;99.90
27633;DHT22;15046;50.930;13.334;2023-02-05T02:12:26;-3.30;99.90
27633;DHT22;15046;50.930;13.334;2023-02-05T02:14:55;-3.30;99.90
27633;DHT22;15046;50.930;13.334;2023-02-05T02:17:25;-3.30;99.90
27633;DHT22;15046;50.930;13.334;2023-02-05T02:20:09;-3.30;99.90
27633;DHT22;15046;50.930;13.334;2023-02-05T02:28:49;-3.40;99.90
27633;DHT22;15046;50.930;13.334;2023-02-05T02:31:41;-3.40;99.90
27633;DHT22;15046;50.930;13.334;2023-02-05T02:34:18;-3.50;99.90
27633;DHT22;15046;50.930;13.334;2023-02-05T02:36:55;-3.50;99.90
27633;DHT22;15046;50.930;13.334;2023-02-05T02:39:31;-3.50;99.90
27633;DHT22;15046;50.930;13.334;2023-02-05T02:42:23;-3.60;99.90
27633;DHT22;15046;50.930;13.334;2023-02-05T02:44:59;-3.60;99.90
27633;DHT22;15046;50.930;13.334;2023-02-05T02:47:57;-3.60;99.90
27633;DHT22;15046;50.930;13.334;2023-02-05T02:50:35;-3.70;99.90
27633;DHT22;15046;50.930;13.334;2023-02-05T02:53:15;-3.70;99.90
27633;DHT22;15046;50.930;13.334;2023-02-05T02:55:42;-3.80;99.90
27633;DHT22;15046;50.930;13.334;2023-02-05T02:58:23;-3.80;99.90
27633;DHT22;15046;50.930;13.334;2023-02-05T03:00:50;-3.80;99.90
27633;DHT22;15046;50.930;13.334;2023-02-05T03:03:20;-3.80;99.90
27633;DHT22;15046;50.930;13.334;2023-02-05T03:05:48;-3.80;99.90
27633;DHT22;15046;50.930;13.334;2023-02-05T03:08:24;-3.80;99.90
27633;DHT22;15046;50.930;13.334;2023-02-05T03:11:01;-3.80;99.90
27633;DHT22;15046;50.930;13.334;2023-02-05T03:13:28;-3.90;99.90
27633;DHT22;15046;50.930;13.334;2023-02-05T03:15:54;-3.90;99.90
27633;DHT22;15046;50.930;13.334;2023-02-05T03:18:20;-3.90;99.90
27633;DHT22;15046;50.930;13.334;2023-02-05T03:20:51;-4.00;99.90
27633;DHT22;15046;50.930;13.334;2023-02-05T03:23:18;-3.90;99.90
27633;DHT22;15046;50.930;13.334;2023-02-05T03:25:44;-4.00;99.90
27633;DHT22;15046;50.930;13.334;2023-02-05T03:28:10;-4.00;99.90
27633;DHT22;15046;50.930;13.334;2023-02-05T03:33:38;-4.10;99.90
27633;DHT22;15046;50.930;13.334;2023-02-05T03:39:10;-4.20;99.90
27633;DHT22;15046;50.930;13.334;2023-02-05T03:42:26;-4.20;99.90
27633;DHT22;15046;50.930;13.334;2023-02-05T03:50:42;-4.30;99.90
27633;DHT22;15046;50.930;13.334;2023-02-05T03:55:45;-4.40;99.90
27633;DHT22;15046;50.930;13.334;2023-02-05T04:00:42;-4.40;99.90
27633;DHT22;15046;50.930;13.334;2023-02-05T04:03:07;-4.40;99.90
27633;DHT22;15046;50.930;13.334;2023-02-05T04:05:33;-4.50;99.90
27633;DHT22;15046;50.930;13.334;2023-02-05T04:07:59;-4.50;99.90
27633;DHT22;15046;50.930;13.334;2023-02-05T04:10:26;-4.50;99.90
27633;DHT22;15046;50.930;13.334;2023-02-05T04:12:52;-4.50;99.90
27633;DHT22;15046;50.930;13.334;2023-02-05T04:15:17;-4.50;99.90
27633;DHT22;15046;50.930;13.334;2023-02-05T04:17:43;-4.60;99.90
27633;DHT22;15046;50.930;13.334;2023-02-05T04:20:09;-4.60;99.90
27633;DHT22;15046;50.930;13.334;2023-02-05T04:22:35;-4.60;99.90
27633;DHT22;15046;50.930;13.334;2023-02-05T04:25:01;-4.70;99.90
27633;DHT22;15046;50.930;13.334;2023-02-05T04:27:26;-4.70;99.90
27633;DHT22;15046;50.930;13.334;2023-02-05T04:29:52;-4.70;99.90
27633;DHT22;15046;50.930;13.334;2023-02-05T04:32:18;-4.70;99.90
27633;DHT22;15046;50.930;13.334;2023-02-05T04:34:45;-4.70;99.90
27633;DHT22;15046;50.930;13.334;2023-02-05T04:37:11;-4.70;99.90
27633;DHT22;15046;50.930;13.334;2023-02-05T04:39:37;-4.70;99.90
27633;DHT22;15046;50.930;13.334;2023-02-05T04:42:02;-4.70;99.90
27633;DHT22;15046;50.930;13.334;2023-02-05T04:44:28;-4.70;99.90
27633;DHT22;15046;50.930;13.334;2023-02-05T04:46:54;-4.70;99.90
27633;DHT22;15046;50.930;13.334;2023-02-05T04:49:20;-4.60;99.90
27633;DHT22;15046;50.930;13.334;2023-02-05T04:51:46;-4.60;99.90
27633;DHT22;15046;50.930;13.334;2023-02-05T04:54:11;-4.60;99.90
27633;DHT22;15046;50.930;13.334;2023-02-05T04:56:38;-4.50;99.90
27633;DHT22;15046;50.930;13.334;2023-02-05T04:59:04;-4.50;99.90
27633;DHT22;15046;50.930;13.334;2023-02-05T05:01:30;-4.50;99.90
27633;DHT22;15046;50.930;13.334;2023-02-05T05:03:55;-4.40;99.90
27633;DHT22;15046;50.930;13.334;2023-02-05T05:06:21;-4.40;99.90
27633;DHT22;15046;50.930;13.334;2023-02-05T05:08:47;-4.40;99.90
27633;DHT22;15046;50.930;13.334;2023-02-05T05:11:16;-4.40;99.90
27633;DHT22;15046;50.930;13.334;2023-02-05T05:13:43;-4.40;99.90
27633;DHT22;15046;50.930;13.334;2023-02-05T05:16:09;-4.40;99.90
27633;DHT22;15046;50.930;13.334;2023-02-05T05:18:36;-4.40;99.90
27633;DHT22;15046;50.930;13.334;2023-02-05T05:21:03;-4.40;99.90
27633;DHT22;15046;50.930;13.334;2023-02-05T05:23:31;-4.40;99.90
27633;DHT22;15046;50.930;13.334;2023-02-05T05:25:56;-4.40;99.90
27633;DHT22;15046;50.930;13.334;2023-02-05T05:28:22;-4.40;99.90
27633;DHT22;15046;50.930;13.334;2023-02-05T05:30:48;-4.40;99.90
27633;DHT22;15046;50.930;13.334;2023-02-05T05:33:14;-4.40;99.90
27633;DHT22;15046;50.930;13.334;2023-02-05T05:35:40;-4.40;99.90
27633;DHT22;15046;50.930;13.334;2023-02-05T05:38:06;-4.30;99.90
27633;DHT22;15046;50.930;13.334;2023-02-05T05:40:32;-4.30;99.90
27633;DHT22;15046;50.930;13.334;2023-02-05T05:43:19;-4.30;99.90
27633;DHT22;15046;50.930;13.334;2023-02-05T05:46:05;-4.30;99.90
27633;DHT22;15046;50.930;13.334;2023-02-05T05:48:31;-4.20;99.90
27633;DHT22;15046;50.930;13.334;2023-02-05T05:50:57;-4.20;99.90
27633;DHT22;15046;50.930;13.334;2023-02-05T05:53:23;-4.20;99.90
27633;DHT22;15046;50.930;13.334;2023-02-05T05:55:49;-4.20;99.90
27633;DHT22;15046;50.930;13.334;2023-02-05T05:58:15;-4.20;99.90
27633;DHT22;15046;50.930;13.334;2023-02-05T06:00:41;-4.20;99.90
27633;DHT22;15046;50.930;13.334;2023-02-05T06:03:11;-4.20;99.90
27633;DHT22;15046;50.930;13.334;2023-02-05T06:05:37;-4.20;99.90
27633;DHT22;15046;50.930;13.334;2023-02-05T06:08:03;-4.20;99.90
27633;DHT22;15046;50.930;13.334;2023-02-05T06:10:30;-4.20;99.90
27633;DHT22;15046;50.930;13.334;2023-02-05T06:12:58;-4.20;99.90
27633;DHT22;15046;50.930;13.334;2023-02-05T06:15:24;-4.20;99.90
27633;DHT22;15046;50.930;13.334;2023-02-05T06:17:51;-4.30;99.90
27633;DHT22;15046;50.930;13.334;2023-02-05T06:20:17;-4.30;99.90
27633;DHT22;15046;50.930;13.334;2023-02-05T06:22:43;-4.30;99.90
27633;DHT22;15046;50.930;13.334;2023-02-05T06:25:09;-4.30;99.90
27633;DHT22;15046;50.930;13.334;2023-02-05T06:27:35;-4.40;99.90
27633;DHT22;15046;50.930;13.334;2023-02-05T06:30:01;-4.40;99.90
27633;DHT22;15046;50.930;13.334;2023-02-05T06:32:27;-4.50;99.90
27633;DHT22;15046;50.930;13.334;2023-02-05T06:34:52;-4.50;99.90
27633;DHT22;15046;50.930;13.334;2023-02-05T06:37:18;-4.50;99.90
27633;DHT22;15046;50.930;13.334;2023-02-05T06:39:44;-4.50;99.90
27633;DHT22;15046;50.930;13.334;2023-02-05T06:42:10;-4.50;99.90
27633;DHT22;15046;50.930;13.334;2023-02-05T06:44:35;-4.50;99.90
27633;DHT22;15046;50.930;13.334;2023-02-05T06:47:01;-4.50;99.90
27633;DHT22;15046;50.930;13.334;2023-02-05T06:49:27;-4.50;99.90
27633;DHT22;15046;50.930;13.334;2023-02-05T06:51:53;-4.50;99.90
27633;DHT22;15046;50.930;13.334;2023-02-05T06:54:19;-4.50;99.90
27633;DHT22;15046;50.930;13.334;2023-02-05T06:56:45;-4.50;99.90
27633;DHT22;15046;50.930;13.334;2023-02-05T06:59:12;-4.50;99.90
27633;DHT22;15046;50.930;13.334;2023-02-05T07:01:38;-4.40;99.90
27633;DHT22;15046;50.930;13.334;2023-02-05T07:04:03;-4.30;99.90
27633;DHT22;15046;50.930;13.334;2023-02-05T07:06:29;-4.30;99.90
27633;DHT22;15046;50.930;13.334;2023-02-05T07:08:55;-4.20;99.90
27633;DHT22;15046;50.930;13.334;2023-02-05T07:11:22;-4.20;99.90
27633;DHT22;15046;50.930;13.334;2023-02-05T07:13:48;-4.10;99.90
27633;DHT22;15046;50.930;13.334;2023-02-05T07:16:14;-4.10;99.90
27633;DHT22;15046;50.930;13.334;2023-02-05T07:18:39;-4.00;99.90
27633;DHT22;15046;50.930;13.334;2023-02-05T07:21:11;-4.00;99.90
27633;DHT22;15046;50.930;13.334;2023-02-05T07:23:38;-3.90;99.90
27633;DHT22;15046;50.930;13.334;2023-02-05T07:26:08;-3.70;99.90
27633;DHT22;15046;50.930;13.334;2023-02-05T07:28:34;-3.60;99.90
27633;DHT22;15046;50.930;13.334;2023-02-05T07:31:04;-3.50;99.90
27633;DHT22;15046;50.930;13.334;2023-02-05T07:33:33;-3.40;99.90
27633;DHT22;15046;50.930;13.334;2023-02-05T07:36:06;-3.30;99.90
27633;DHT22;15046;50.930;13.334;2023-02-05T07:38:34;-3.20;99.90
27633;DHT22;15046;50.930;13.334;2023-02-05T07:41:03;-3.20;99.90
27633;DHT22;15046;50.930;13.334;2023-02-05T07:43:29;-3.10;99.90
27633;DHT22;15046;50.930;13.334;2023-02-05T07:45:58;-3.10;99.90
27633;DHT22;15046;50.930;13.334;2023-02-05T07:48:24;-3.00;99.90
27633;DHT22;15046;50.930;13.334;2023-02-05T07:50:50;-3.00;99.90
27633;DHT22;15046;50.930;13.334;2023-02-05T07:53:15;-3.00;99.90
27633;DHT22;15046;50.930;13.334;2023-02-05T07:55:41;-2.90;99.90
27633;DHT22;15046;50.930;13.334;2023-02-05T07:58:07;-2.90;99.90
27633;DHT22;15046;50.930;13.334;2023-02-05T08:00:33;-2.90;99.90
27633;DHT22;15046;50.930;13.334;2023-02-05T08:02:59;-2.80;99.90
27633;DHT22;15046;50.930;13.334;2023-02-05T08:05:25;-2.70;99.90
27633;DHT22;15046;50.930;13.334;2023-02-05T08:07:56;-2.60;99.90
27633;DHT22;15046;50.930;13.334;2023-02-05T08:10:21;-2.50;99.90
27633;DHT22;15046;50.930;13.334;2023-02-05T08:12:47;-2.50;99.90
27633;DHT22;15046;50.930;13.334;2023-02-05T08:15:13;-2.30;99.90
27633;DHT22;15046;50.930;13.334;2023-02-05T08:17:42;-2.30;99.90
27633;DHT22;15046;50.930;13.334;2023-02-05T08:20:08;-2.20;99.90
27633;DHT22;15046;50.930;13.334;2023-02-05T08:22:36;-2.00;99.90
27633;DHT22;15046;50.930;13.334;2023-02-05T08:25:04;-1.90;99.90
27633;DHT22;15046;50.930;13.334;2023-02-05T08:27:32;-1.70;99.90
27633;DHT22;15046;50.930;13.334;2023-02-05T08:29:59;-1.60;99.90
27633;DHT22;15046;50.930;13.334;2023-02-05T08:32:25;-1.50;99.90
27633;DHT22;15046;50.930;13.334;2023-02-05T08:34:51;-1.30;99.90
27633;DHT22;15046;50.930;13.334;2023-02-05T08:37:16;-1.10;99.90
27633;DHT22;15046;50.930;13.334;2023-02-05T08:39:42;-1.00;99.90
27633;DHT22;15046;50.930;13.334;2023-02-05T08:42:08;-0.90;99.90
27633;DHT22;15046;50.930;13.334;2023-02-05T08:44:34;-0.70;99.90
27633;DHT22;15046;50.930;13.334;2023-02-05T08:46:59;-0.50;99.90
27633;DHT22;15046;50.930;13.334;2023-02-05T08:49:25;-0.40;99.90
27633;DHT22;15046;50.930;13.334;2023-02-05T08:51:51;-0.30;99.90
27633;DHT22;15046;50.930;13.334;2023-02-05T08:54:17;-0.10;99.90
27633;DHT22;15046;50.930;13.334;2023-02-05T08:56:43;0.00;99.90
27633;DHT22;15046;50.930;13.334;2023-02-05T08:59:11;0.20;99.90
27633;DHT22;15046;50.930;13.334;2023-02-05T09:01:45;0.30;99.90
27633;DHT22;15046;50.930;13.334;2023-02-05T09:04:16;0.50;99.90
27633;DHT22;15046;50.930;13.334;2023-02-05T09:06:42;0.60;99.90
27633;DHT22;15046;50.930;13.334;2023-02-05T09:09:09;0.80;99.90
27633;DHT22;15046;50.930;13.334;2023-02-05T09:11:35;1.00;99.90
27633;DHT22;15046;50.930;13.334;2023-02-05T09:14:01;1.20;99.90
27633;DHT22;15046;50.930;13.334;2023-02-05T09:16:27;1.40;99.90
27633;DHT22;15046;50.930;13.334;2023-02-05T09:18:53;1.50;99.90
27633;DHT22;15046;50.930;13.334;2023-02-05T09:21:20;1.40;99.90
27633;DHT22;15046;50.930;13.334;2023-02-05T09:23:46;1.40;99.90
27633;DHT22;15046;50.930;13.334;2023-02-05T09:26:20;1.40;99.90
27633;DHT22;15046;50.930;13.334;2023-02-05T09:28:46;1.30;99.90
27633;DHT22;15046;50.930;13.334;2023-02-05T09:31:13;1.30;99.90
27633;DHT22;15046;50.930;13.334;2023-02-05T09:33:40;1.20;99.90
27633;DHT22;15046;50.930;13.334;2023-02-05T09:36:28;1.20;99.90
27633;DHT22;15046;50.930;13.334;2023-02-05T09:38:53;1.20;99.90
27633;DHT22;15046;50.930;13.334;2023-02-05T09:41:44;1.20;99.90
27633;DHT22;15046;50.930;13.334;2023-02-05T09:44:24;1.30;99.90
27633;DHT22;15046;50.930;13.334;2023-02-05T09:49:33;1.70;99.90
27633;DHT22;15046;50.930;13.334;2023-02-05T09:52:21;2.00;99.90
27633;DHT22;15046;50.930;13.334;2023-02-05T09:54:51;2.70;99.90
27633;DHT22;15046;50.930;13.334;2023-02-05T09:57:37;3.30;99.90
27633;DHT22;15046;50.930;13.334;2023-02-05T10:06:24;4.40;99.90
27633;DHT22;15046;50.930;13.334;2023-02-05T10:11:35;4.50;99.90
27633;DHT22;15046;50.930;13.334;2023-02-05T10:17:11;4.20;99.90
27633;DHT22;15046;50.930;13.334;2023-02-05T10:22:57;3.60;99.90
27633;DHT22;15046;50.930;13.334;2023-02-05T10:28:29;3.40;99.90
27633;DHT22;15046;50.930;13.334;2023-02-05T10:33:50;3.30;99.90
27633;DHT22;15046;50.930;13.334;2023-02-05T10:36:22;3.30;99.90
27633;DHT22;15046;50.930;13.334;2023-02-05T10:38:51;3.40;99.90
27633;DHT22;15046;50.930;13.334;2023-02-05T10:41:36;3.30;99.90
27633;DHT22;15046;50.930;13.334;2023-02-05T10:44:29;3.20;99.90
27633;DHT22;15046;50.930;13.334;2023-02-05T10:47:02;3.00;99.90
27633;DHT22;15046;50.930;13.334;2023-02-05T10:49:52;2.80;99.90
27633;DHT22;15046;50.930;13.334;2023-02-05T10:52:20;2.70;99.90
27633;DHT22;15046;50.930;13.334;2023-02-05T10:54:47;2.70;99.90
27633;DHT22;15046;50.930;13.334;2023-02-05T10:57:19;2.70;99.90
27633;DHT22;15046;50.930;13.334;2023-02-05T11:00:02;2.70;99.90
27633;DHT22;15046;50.930;13.334;2023-02-05T11:02:35;2.50;99.90
27633;DHT22;15046;50.930;13.334;2023-02-05T11:05:12;2.30;99.90
27633;DHT22;15046;50.930;13.334;2023-02-05T11:07:45;2.20;99.90
27633;DHT22;15046;50.930;13.334;2023-02-05T11:12:46;2.10;99.90
27633;DHT22;15046;50.930;13.334;2023-02-05T11:15:22;2.00;99.90
27633;DHT22;15046;50.930;13.334;2023-02-05T11:17:51;2.00;99.90
27633;DHT22;15046;50.930;13.334;2023-02-05T11:22:42;1.90;99.90
27633;DHT22;15046;50.930;13.334;2023-02-05T11:25:21;1.90;99.90
27633;DHT22;15046;50.930;13.334;2023-02-05T11:27:57;2.00;99.90
27633;DHT22;15046;50.930;13.334;2023-02-05T11:30:34;1.90;99.90
27633;DHT22;15046;50.930;13.334;2023-02-05T11:36:00;2.10;99.90
27633;DHT22;15046;50.930;13.334;2023-02-05T11:38:34;2.10;99.90
27633;DHT22;15046;50.930;13.334;2023-02-05T11:41:06;2.20;99.90
27633;DHT22;15046;50.930;13.334;2023-02-05T11:43:38;2.30;99.90
27633;DHT22;15046;50.930;13.334;2023-02-05T11:46:09;2.50;99.90
27633;DHT22;15046;50.930;13.334;2023-02-05T11:48:41;2.60;99.90
27633;DHT22;15046;50.930;13.334;2023-02-05T11:51:14;2.70;99.90
27633;DHT22;15046;50.930;13.334;2023-02-05T11:53:51;2.90;99.90
27633;DHT22;15046;50.930;13.334;2023-02-05T11:56:21;3.00;99.90
27633;DHT22;15046;50.930;13.334;2023-02-05T11:59:04;3.30;99.90
27633;DHT22;15046;50.930;13.334;2023-02-05T12:01:32;3.40;99.90
27633;DHT22;15046;50.930;13.334;2023-02-05T12:06:55;3.70;99.90
27633;DHT22;15046;50.930;13.334;2023-02-05T12:09:23;3.90;99.90
27633;DHT22;15046;50.930;13.334;2023-02-05T12:21:08;4.20;99.90
27633;DHT22;15046;50.930;13.334;2023-02-05T12:42:35;4.00;99.90
27633;DHT22;15046;50.930;13.334;2023-02-05T12:58:13;3.60;99.90
27633;DHT22;15046;50.930;13.334;2023-02-05T13:00:56;3.60;99.90
27633;DHT22;15046;50.930;13.334;2023-02-05T13:03:26;3.50;99.90
27633;DHT22;15046;50.930;13.334;2023-02-05T13:06:08;3.50;99.90
27633;DHT22;15046;50.930;13.334;2023-02-05T13:13:51;3.50;99.90
27633;DHT22;15046;50.930;13.334;2023-02-05T13:16:19;3.40;99.90
27633;DHT22;15046;50.930;13.334;2023-02-05T13:18:59;3.30;99.90
27633;DHT22;15046;50.930;13.334;2023-02-05T13:21:26;3.40;99.90
27633;DHT22;15046;50.930;13.334;2023-02-05T13:24:35;3.30;99.90
27633;DHT22;15046;50.930;13.334;2023-02-05T13:27:31;3.20;99.90
27633;DHT22;15046;50.930;13.334;2023-02-05T13:30:28;3.20;99.90
27633;DHT22;15046;50.930;13.334;2023-02-05T13:32:59;3.20;99.90
27633;DHT22;15046;50.930;13.334;2023-02-05T13:35:32;3.30;99.90
27633;DHT22;15046;50.930;13.334;2023-02-05T13:43:53;3.50;99.90
27633;DHT22;15046;50.930;13.334;2023-02-05T13:46:34;3.60;99.90
27633;DHT22;15046;50.930;13.334;2023-02-05T13:52:09;3.70;99.90
27633;DHT22;15046;50.930;13.334;2023-02-05T13:57:37;3.70;99.90
27633;DHT22;15046;50.930;13.334;2023-02-05T14:00:13;3.80;99.90
27633;DHT22;15046;50.930;13.334;2023-02-05T14:02:45;3.80;99.90
27633;DHT22;15046;50.930;13.334;2023-02-05T14:05:13;3.70;99.90
27633;DHT22;15046;50.930;13.334;2023-02-05T14:07:47;3.60;99.90
27633;DHT22;15046;50.930;13.334;2023-02-05T14:10:29;3.50;99.90
27633;DHT22;15046;50.930;13.334;2023-02-05T14:13:20;3.40;99.90
27633;DHT22;15046;50.930;13.334;2023-02-05T14:15:48;3.30;99.90
27633;DHT22;15046;50.930;13.334;2023-02-05T14:19:17;3.30;99.90
27633;DHT22;15046;50.930;13.334;2023-02-05T14:24:00;3.00;99.90
27633;DHT22;15046;50.930;13.334;2023-02-05T14:26:46;2.90;99.90
27633;DHT22;15046;50.930;13.334;2023-02-05T14:32:04;2.70;99.90
27633;DHT22;15046;50.930;13.334;2023-02-05T14:36:56;2.50;99.90
27633;DHT22;15046;50.930;13.334;2023-02-05T14:39:33;2.50;99.90
27633;DHT22;15046;50.930;13.334;2023-02-05T14:42:05;2.40;99.90
27633;DHT22;15046;50.930;13.334;2023-02-05T14:44:34;2.40;99.90
27633;DHT22;15046;50.930;13.334;2023-02-05T14:47:20;2.30;99.90
27633;DHT22;15046;50.930;13.334;2023-02-05T14:49:48;2.20;99.90
27633;DHT22;15046;50.930;13.334;2023-02-05T14:52:25;2.20;99.90
27633;DHT22;15046;50.930;13.334;2023-02-05T14:55:06;2.20;99.90
27633;DHT22;15046;50.930;13.334;2023-02-05T14:57:56;2.10;99.90
27633;DHT22;15046;50.930;13.334;2023-02-05T15:11:41;1.60;99.90
27633;DHT22;15046;50.930;13.334;2023-02-05T15:17:34;1.50;99.90
27633;DHT22;15046;50.930;13.334;2023-02-05T15:19:51;1.40;99.90
27633;DHT22;15046;50.930;13.334;2023-02-05T15:22:24;1.30;99.90
27633;DHT22;15046;50.930;13.334;2023-02-05T15:24:51;1.20;99.90
27633;DHT22;15046;50.930;13.334;2023-02-05T15:27:22;1.20;99.90
27633;DHT22;15046;50.930;13.334;2023-02-05T15:29:52;1.20;99.90
27633;DHT22;15046;50.930;13.334;2023-02-05T15:32:44;1.10;99.90
27633;DHT22;15046;50.930;13.334;2023-02-05T15:35:20;1.00;99.90
27633;DHT22;15046;50.930;13.334;2023-02-05T15:38:16;1.00;99.90
27633;DHT22;15046;50.930;13.334;2023-02-05T15:40:44;0.90;99.90
27633;DHT22;15046;50.930;13.334;2023-02-05T15:43:25;0.80;99.90
27633;DHT22;15046;50.930;13.334;2023-02-05T15:46:03;0.70;99.90
27633;DHT22;15046;50.930;13.334;2023-02-05T15:48:33;0.70;99.90
27633;DHT22;15046;50.930;13.334;2023-02-05T15:51:15;0.60;99.90
27633;DHT22;15046;50.930;13.334;2023-02-05T15:53:47;0.50;99.90
27633;DHT22;15046;50.930;13.334;2023-02-05T15:58:53;0.30;99.90
27633;DHT22;15046;50.930;13.334;2023-02-05T16:01:24;0.30;99.90
27633;DHT22;15046;50.930;13.334;2023-02-05T16:03:51;0.20;99.90
27633;DHT22;15046;50.930;13.334;2023-02-05T16:06:22;0.00;99.90
27633;DHT22;15046;50.930;13.334;2023-02-05T16:08:49;-0.10;99.90
27633;DHT22;15046;50.930;13.334;2023-02-05T16:11:33;-0.10;99.90
27633;DHT22;15046;50.930;13.334;2023-02-05T16:14:09;-0.20;99.90
27633;DHT22;15046;50.930;13.334;2023-02-05T16:16:37;-0.30;99.90
27633;DHT22;15046;50.930;13.334;2023-02-05T16:19:09;-0.30;99.90
27633;DHT22;15046;50.930;13.334;2023-02-05T16:21:45;-0.40;99.90
27633;DHT22;15046;50.930;13.334;2023-02-05T16:24:22;-0.50;99.90
27633;DHT22;15046;50.930;13.334;2023-02-05T16:29:29;-0.60;99.90
27633;DHT22;15046;50.930;13.334;2023-02-05T16:31:58;-0.60;99.90
27633;DHT22;15046;50.930;13.334;2023-02-05T16:34:24;-0.70;99.90
27633;DHT22;15046;50.930;13.334;2023-02-05T16:36:51;-0.70;99.90
27633;DHT22;15046;50.930;13.334;2023-02-05T16:39:35;-0.80;99.90
27633;DHT22;15046;50.930;13.334;2023-02-05T16:42:07;-0.80;99.90
27633;DHT22;15046;50.930;13.334;2023-02-05T16:44:38;-0.90;99.90
27633;DHT22;15046;50.930;13.334;2023-02-05T16:47:16;-0.90;99.90
27633;DHT22;15046;50.930;13.334;2023-02-05T16:49:44;-0.90;99.90
27633;DHT22;15046;50.930;13.334;2023-02-05T16:52:40;-1.00;99.90
27633;DHT22;15046;50.930;13.334;2023-02-05T16:57:55;-1.10;99.90
27633;DHT22;15046;50.930;13.334;2023-02-05T17:00:27;-1.10;99.90
27633;DHT22;15046;50.930;13.334;2023-02-05T17:02:57;-1.20;99.90
27633;DHT22;15046;50.930;13.334;2023-02-05T17:05:53;-1.10;99.90
27633;DHT22;15046;50.930;13.334;2023-02-05T17:08:38;-1.20;99.90
27633;DHT22;15046;50.930;13.334;2023-02-05T17:11:06;-1.20;99.90
27633;DHT22;15046;50.930;13.334;2023-02-05T17:13:43;-1.30;99.90
27633;DHT22;15046;50.930;13.334;2023-02-05T17:16:28;-1.30;99.90
27633;DHT22;15046;50.930;13.334;2023-02-05T17:19:03;-1.30;99.90
27633;DHT22;15046;50.930;13.334;2023-02-05T17:21:31;-1.40;99.90
27633;DHT22;15046;50.930;13.334;2023-02-05T17:23:58;-1.40;99.90
27633;DHT22;15046;50.930;13.334;2023-02-05T17:26:28;-1.40;99.90
27633;DHT22;15046;50.930;13.334;2023-02-05T17:28:58;-1.40;99.90
27633;DHT22;15046;50.930;13.334;2023-02-05T17:31:25;-1.50;99.90
27633;DHT22;15046;50.930;13.334;2023-02-05T17:33:57;-1.50;99.90
27633;DHT22;15046;50.930;13.334;2023-02-05T17:36:24;-1.50;99.90
27633;DHT22;15046;50.930;13.334;2023-02-05T17:38:50;-1.60;99.90
27633;DHT22;15046;50.930;13.334;2023-02-05T17:41:18;-1.60;99.90
27633;DHT22;15046;50.930;13.334;2023-02-05T17:44:12;-1.60;99.90
27633;DHT22;15046;50.930;13.334;2023-02-05T17:46:39;-1.60;99.90
27633;DHT22;15046;50.930;13.334;2023-02-05T17:49:05;-1.70;99.90
27633;DHT22;15046;50.930;13.334;2023-02-05T17:51:31;-1.70;99.90
27633;DHT22;15046;50.930;13.334;2023-02-05T17:53:56;-1.70;99.90
27633;DHT22;15046;50.930;13.334;2023-02-05T17:56:23;-1.80;99.90
27633;DHT22;15046;50.930;13.334;2023-02-05T17:58:50;-1.80;99.90
27633;DHT22;15046;50.930;13.334;2023-02-05T18:01:17;-1.80;99.90
27633;DHT22;15046;50.930;13.334;2023-02-05T18:03:43;-1.90;99.90
27633;DHT22;15046;50.930;13.334;2023-02-05T18:06:12;-1.90;99.90
27633;DHT22;15046;50.930;13.334;2023-02-05T18:08:39;-1.90;99.90
27633;DHT22;15046;50.930;13.334;2023-02-05T18:11:05;-1.90;99.90